Pamlico — WX6900 — position and weather

sailwx.info

Track history (hours):
 
Tides and Currents Weather Stations Pressure Air Temp Water Temp Dewpoint Dewpoint Depression Visibility Wind Speed Wind Dir Waves Ship Positions

Pamlico

Owner: PCS Phosphate, AURORA, NC. More information available from US FCC via Universal Licensing System and Coast Guard Vessel Documentation Center.

Last reported at 2016-Sep-01 01:33 UTC. Time now 2016-Sep-01 02:00 UTC.
Position N 34°49' W 076°41'.

; draft 2 m.

Type: Tug. MMSI: 367361220.

Date/timePositionNaut miles runAvg speedWind from/ knotsBaromVisibWave heightAir tempDewpointWater temp
2016-Sep-01 01:33N 34°49' W 076°41'6 6.0
2016-Sep-01 00:33N 34°43' W 076°42'2 1.7
2016-Aug-31 23:33N 34°45' W 076°41'5 5.1
2016-Aug-31 22:33N 34°50' W 076°41'5 5.4
2016-Aug-31 21:33N 34°55' W 076°40'12 5.9
2016-Aug-31 19:29N 35°06' W 076°32'11 0.8
2016-Aug-31 06:33N 34°58' W 076°41'5 4.7
2016-Aug-31 05:33N 34°53' W 076°41'5 4.6
2016-Aug-31 04:33N 34°48' W 076°41'5 5.3
2016-Aug-31 03:33N 34°43' W 076°42'0 0.1
2016-Aug-31 02:33N 34°43' W 076°42'0 0.0
2016-Aug-31 01:33N 34°43' W 076°42'0 0.0
2016-Aug-31 00:33N 34°43' W 076°42'0 0.0
2016-Aug-30 23:33N 34°43' W 076°42'0 0.0
2016-Aug-30 22:33N 34°43' W 076°42'0 0.0
2016-Aug-30 21:33N 34°43' W 076°42'1 0.6
2016-Aug-30 20:33N 34°43' W 076°41'3 3.3
2016-Aug-30 19:33N 34°46' W 076°41'8 8.1
2016-Aug-30 18:33N 34°54' W 076°40'2 0.2
2016-Aug-30 04:32N 34°57' W 076°40'6 5.9
2016-Aug-30 03:33N 34°51' W 076°41'6 6.5
2016-Aug-30 02:33N 34°44' W 076°41'1 1.4
2016-Aug-30 01:33N 34°43' W 076°42'0 0.1
2016-Aug-30 00:33N 34°43' W 076°42'1 0.9
2016-Aug-29 23:33N 34°44' W 076°41'5 5.3
2016-Aug-29 22:33N 34°49' W 076°41'5 4.8
2016-Aug-29 21:33N 34°54' W 076°41'  
2016-Aug-26 09:33N 34°58' W 076°41'7 7.0
2016-Aug-26 08:33N 34°51' W 076°41'7 7.5
2016-Aug-26 07:34N 34°43' W 076°42'0 0.1
2016-Aug-26 06:33N 34°43' W 076°42'7 3.3
2016-Aug-26 04:33N 34°50' W 076°41'6 6.1
2016-Aug-26 03:33N 34°56' W 076°39'2 0.0
2016-Aug-24 18:29N 34°57' W 076°40'7 7.9
2016-Aug-24 17:34N 34°50' W 076°41'6 6.5
2016-Aug-24 16:34N 34°43' W 076°42'1 0.7
2016-Aug-24 15:34N 34°44' W 076°41'5 5.4
2016-Aug-24 14:34N 34°49' W 076°41'6 6.2
2016-Aug-24 13:33N 34°55' W 076°39'12 6.0
2016-Aug-24 11:31N 35°06' W 076°32'11 0.2
2016-Aug-22 13:34N 34°57' W 076°40'5 5.0
2016-Aug-22 12:33N 34°52' W 076°41'5 4.8
2016-Aug-22 11:33N 34°47' W 076°41'4 3.8
2016-Aug-22 10:33N 34°43' W 076°42'0 0.0
2016-Aug-22 09:33N 34°43' W 076°42'5 5.1
2016-Aug-22 08:33N 34°48' W 076°41'6 5.5
2016-Aug-22 07:33N 34°54' W 076°41'  
Track history (hours):
 
Tides and Currents Weather Stations Pressure Air Temp Water Temp Dewpoint Dewpoint Depression Visibility Wind Speed Wind Dir Waves Ship Positions

Pamlico

Owner: PCS Phosphate, AURORA, NC. More information available from US FCC via Universal Licensing System and Coast Guard Vessel Documentation Center.

Last reported at 2016-Sep-01 01:33 UTC. Time now 2016-Sep-01 02:00 UTC.
Position N 34°49' W 076°41'.

; draft 2 m.

Type: Tug. MMSI: 367361220.

Date/timePositionNaut miles runAvg speedWind from/ knotsBaromVisibWave heightAir tempDewpointWater temp
2016-Sep-01 01:33N 34°49' W 076°41'6 6.0
2016-Sep-01 00:33N 34°43' W 076°42'2 1.7
2016-Aug-31 23:33N 34°45' W 076°41'5 5.1
2016-Aug-31 22:33N 34°50' W 076°41'5 5.4
2016-Aug-31 21:33N 34°55' W 076°40'12 5.9
2016-Aug-31 19:29N 35°06' W 076°32'11 0.8
2016-Aug-31 06:33N 34°58' W 076°41'5 4.7
2016-Aug-31 05:33N 34°53' W 076°41'5 4.6
2016-Aug-31 04:33N 34°48' W 076°41'5 5.3
2016-Aug-31 03:33N 34°43' W 076°42'0 0.1
2016-Aug-31 02:33N 34°43' W 076°42'0 0.0
2016-Aug-31 01:33N 34°43' W 076°42'0 0.0
2016-Aug-31 00:33N 34°43' W 076°42'0 0.0
2016-Aug-30 23:33N 34°43' W 076°42'0 0.0
2016-Aug-30 22:33N 34°43' W 076°42'0 0.0
2016-Aug-30 21:33N 34°43' W 076°42'1 0.6
2016-Aug-30 20:33N 34°43' W 076°41'3 3.3
2016-Aug-30 19:33N 34°46' W 076°41'8 8.1
2016-Aug-30 18:33N 34°54' W 076°40'2 0.2
2016-Aug-30 04:32N 34°57' W 076°40'6 5.9
2016-Aug-30 03:33N 34°51' W 076°41'6 6.5
2016-Aug-30 02:33N 34°44' W 076°41'1 1.4
2016-Aug-30 01:33N 34°43' W 076°42'0 0.1
2016-Aug-30 00:33N 34°43' W 076°42'1 0.9
2016-Aug-29 23:33N 34°44' W 076°41'5 5.3
2016-Aug-29 22:33N 34°49' W 076°41'5 4.8
2016-Aug-29 21:33N 34°54' W 076°41'  
2016-Aug-26 09:33N 34°58' W 076°41'7 7.0
2016-Aug-26 08:33N 34°51' W 076°41'7 7.5
2016-Aug-26 07:34N 34°43' W 076°42'0 0.1
2016-Aug-26 06:33N 34°43' W 076°42'7 3.3
2016-Aug-26 04:33N 34°50' W 076°41'6 6.1
2016-Aug-26 03:33N 34°56' W 076°39'2 0.0
2016-Aug-24 18:29N 34°57' W 076°40'7 7.9
2016-Aug-24 17:34N 34°50' W 076°41'6 6.5
2016-Aug-24 16:34N 34°43' W 076°42'1 0.7
2016-Aug-24 15:34N 34°44' W 076°41'5 5.4
2016-Aug-24 14:34N 34°49' W 076°41'6 6.2
2016-Aug-24 13:33N 34°55' W 076°39'12 6.0
2016-Aug-24 11:31N 35°06' W 076°32'11 0.2
2016-Aug-22 13:34N 34°57' W 076°40'5 5.0
2016-Aug-22 12:33N 34°52' W 076°41'5 4.8
2016-Aug-22 11:33N 34°47' W 076°41'4 3.8
2016-Aug-22 10:33N 34°43' W 076°42'0 0.0
2016-Aug-22 09:33N 34°43' W 076°42'5 5.1
2016-Aug-22 08:33N 34°48' W 076°41'6 5.5
2016-Aug-22 07:33N 34°54' W 076°41'  

Dump ship's entire track history